Time;durP1;ratioP1;P1;durP2;ratioP2;P2;SDS_P1;SDS_P2;PMS_P1;PMS_P2;Temp;Humidity;BMP_temperature;BMP_pressure;BME280_temperature;BME280_humidity;BME280_pressure;Samples;Min_cycle;Max_cycle;Signal;HPM_P1;HPM_P2
2022/11/13 00:00:57;;;;;;;;;72.50;58.00;;;;;11.72;72.82;102159.56;6246306;22;46983;-80
2022/11/13 00:03:23;;;;;;;;;74.75;58.75;;;;;11.71;72.68;102168.38;6246427;22;45308;-80
2022/11/13 00:05:58;;;;;;;;;75.00;58.50;;;;;11.55;72.55;102140.88;6246896;22;45361;-80
2022/11/13 00:08:24;;;;;;;;;75.50;59.75;;;;;11.65;72.81;102155.06;6274863;22;45340;-81
2022/11/13 00:11:24;;;;;;;;;;;;;;;;;;;;;
2022/11/13 00:19:51;;;;;;;;;72.50;56.50;;;;;11.54;72.49;102139.09;6273142;22;45586;-82
2022/11/13 00:22:27;;;;;;;;;73.50;55.75;;;;;11.51;72.80;102135.53;6247704;22;46522;-81
2022/11/13 00:32:15;;;;;;;;;72.50;57.00;;;;;11.61;72.72;102151.50;6275924;22;45997;-81
2022/11/13 00:35:18;;;;;;;;;71.00;56.25;;;;;11.44;72.73;102111.72;6258270;22;47756;-81
2022/11/13 00:38:09;;;;;;;;;73.00;55.00;;;;;11.60;72.54;102143.56;6249343;22;45282;-81
2022/11/13 00:41:03;;;;;;;;;71.00;56.00;;;;;11.27;72.59;102082.44;6276127;22;45296;-81
2022/11/13 00:43:41;;;;;;;;;70.50;54.25;;;;;11.57;72.51;102139.13;6235187;22;45373;-82
2022/11/13 00:46:14;;;;;;;;;67.00;52.50;;;;;11.24;72.21;102082.38;6275088;22;46306;-79
2022/11/13 00:48:45;;;;;;;;;66.75;52.00;;;;;11.36;72.30;102094.88;6249093;22;45296;-79
2022/11/13 00:51:24;;;;;;;;;64.75;52.25;;;;;11.45;72.25;102113.47;6278431;22;45244;-80
2022/11/13 00:54:07;;;;;;;;;64.25;51.50;;;;;11.30;72.28;102088.63;6250525;22;45493;-79
2022/11/13 00:56:38;;;;;;;;;105.00;93.00;;;;;11.31;72.28;102090.41;6249741;22;47306;-80
2022/11/13 01:02:08;;;;;;;;;69.50;55.75;;;;;11.49;72.67;102111.75;6247641;22;45555;-80
2022/11/13 01:04:48;;;;;;;;;69.50;56.75;;;;;11.29;72.54;102079.84;6250074;22;45549;-80
2022/11/13 01:07:23;;;;;;;;;75.00;58.00;;;;;11.39;72.18;102089.66;6248710;22;45412;-80
2022/11/13 01:09:58;;;;;;;;;78.25;61.50;;;;;11.41;72.11;102090.56;6249205;22;45385;-80
2022/11/13 01:12:44;;;;;;;;;80.25;68.25;;;;;11.29;72.49;102087.75;6277934;22;45449;-80
2022/11/13 01:15:36;;;;;;;;;82.50;66.50;;;;;10.96;72.21;102022.22;6249768;22;45324;-79
2022/11/13 01:18:15;;;;;;;;;84.25;72.50;;;;;11.35;72.19;102079.03;6239846;22;46644;-80
2022/11/13 01:20:41;;;;;;;;;88.25;79.00;;;;;10.95;72.51;102013.44;6249466;22;45403;-78
2022/11/13 01:23:07;;;;;;;;;83.25;72.25;;;;;11.30;72.32;102076.31;6277873;22;45397;-79
2022/11/13 01:25:34;;;;;;;;;84.00;73.75;;;;;11.09;72.40;102039.97;6277882;22;45464;-79
2022/11/13 01:28:00;;;;;;;;;86.00;74.75;;;;;10.93;72.06;102020.44;6249972;22;46127;-79
2022/11/13 01:30:25;;;;;;;;;87.75;79.75;;;;;10.97;71.90;102022.25;6275610;22;45562;-79
2022/11/13 01:32:50;;;;;;;;;88.67;80.33;;;;;11.20;72.18;102079.69;6278048;22;45190;-79
2022/11/13 01:35:16;;;;;;;;;86.00;76.67;;;;;11.11;72.05;102061.09;6250034;22;45327;-79
2022/11/13 01:37:41;;;;;;;;;85.67;75.33;;;;;10.88;72.27;102030.03;6278044;22;45186;-79
2022/11/13 01:40:09;;;;;;;;;84.00;71.00;;;;;11.11;72.03;102058.47;6277859;22;45114;-79
2022/11/13 01:42:35;;;;;;;;;81.00;68.50;;;;;10.86;72.03;102036.13;6278021;22;45316;-79
2022/11/13 01:45:03;;;;;;;;;84.25;72.00;;;;;11.01;71.93;102063.59;6277647;22;45310;-78
2022/11/13 01:47:30;;;;;;;;;80.00;65.25;;;;;10.94;71.76;102068.75;6249584;22;45966;-79
2022/11/13 01:49:59;;;;;;;;;45.75;36.25;;;;;10.64;71.98;102025.25;6277626;22;45159;-79
2022/11/13 01:52:48;;;;;;;;;71.25;56.75;;;;;10.80;71.71;102050.97;6248468;22;45423;-79
2022/11/13 01:55:18;;;;;;;;;74.25;59.00;;;;;10.75;71.58;102055.28;6244187;22;45238;-80
2022/11/13 01:58:01;;;;;;;;;;;;;;;;;;;;;
2022/11/13 02:00:32;;;;;;;;;73.25;58.00;;;;;10.18;71.57;101971.75;6276262;22;72894;-79
2022/11/13 02:02:57;;;;;;;;;73.25;58.75;;;;;10.36;71.67;102014.22;6249367;22;45540;-79
2022/11/13 02:05:28;;;;;;;;;71.50;56.75;;;;;10.22;71.76;101993.75;6277656;22;45212;-79
2022/11/13 02:07:53;;;;;;;;;70.50;55.50;;;;;10.48;71.66;102046.91;6249291;22;46581;-80
2022/11/13 02:10:20;;;;;;;;;72.50;56.50;;;;;10.18;71.65;101999.81;6250042;22;45498;-80
2022/11/13 02:12:49;;;;;;;;;69.00;53.75;;;;;10.33;71.49;102027.34;6250032;22;45893;-79
2022/11/13 02:15:17;;;;;;;;;71.50;56.50;;;;;10.09;71.92;101990.91;6277435;22;45316;-79
2022/11/13 02:17:47;;;;;;;;;75.75;58.50;;;;;10.32;72.03;102033.47;6275143;22;45788;-79
2022/11/13 02:20:14;;;;;;;;;66.75;53.75;;;;;9.97;71.59;101968.72;6277865;22;45324;-79
2022/11/13 02:22:54;;;;;;;;;66.75;53.00;;;;;10.25;71.85;102015.75;6251077;22;45273;-80
2022/11/13 02:25:21;;;;;;;;;65.75;52.25;;;;;9.92;71.96;101977.44;6251083;22;45594;-80
2022/11/13 02:27:48;;;;;;;;;60.25;47.00;;;;;10.20;72.06;102019.16;6251135;22;47125;-80
2022/11/13 02:30:25;;;;;;;;;61.50;49.75;;;;;10.15;71.86;102016.44;6250787;22;45865;-80
2022/11/13 02:32:53;;;;;;;;;57.00;45.00;;;;;9.82;71.62;101975.47;6279177;22;45277;-79
2022/11/13 02:35:27;;;;;;;;;57.00;44.75;;;;;9.94;71.63;102011.66;6251022;22;45391;-79
2022/11/13 02:37:57;;;;;;;;;70.50;55.50;;;;;9.91;71.83;102009.84;6278665;22;45422;-80
2022/11/13 02:40:23;;;;;;;;;66.75;52.00;;;;;9.86;71.81;102013.25;6278710;22;45322;-80
2022/11/13 02:42:48;;;;;;;;;52.00;43.50;;;;;9.88;71.88;102016.78;6251374;22;45158;-79
2022/11/13 02:45:13;;;;;;;;;59.50;46.25;;;;;9.90;71.55;102022.97;6250916;22;45236;-80
2022/11/13 02:47:44;;;;;;;;;56.50;46.00;;;;;9.90;71.58;102031.75;6250692;22;47919;-78
2022/11/13 02:50:10;;;;;;;;;53.25;44.75;;;;;9.79;71.79;102009.63;6250624;22;45395;-78
2022/11/13 02:52:38;;;;;;;;;52.75;43.75;;;;;9.84;72.08;102023.75;6249866;22;45400;-78
2022/11/13 02:55:07;;;;;;;;;60.25;48.75;;;;;9.59;71.72;101982.91;6278615;22;45565;-78
2022/11/13 02:57:33;;;;;;;;;61.75;50.00;;;;;9.75;71.69;102026.16;6277932;22;45694;-79
2022/11/13 03:00:02;;;;;;;;;50.50;42.50;;;;;9.72;71.79;102031.38;6250023;22;45576;-78
2022/11/13 03:02:30;;;;;;;;;43.25;40.00;;;;;9.57;71.98;102018.81;6250536;22;45422;-79
2022/11/13 03:04:56;;;;;;;;;50.25;40.75;;;;;9.52;71.67;102014.31;6249622;22;45308;-79
2022/11/13 03:07:21;;;;;;;;;50.25;41.25;;;;;9.55;71.79;102028.41;6250441;22;47668;-79
2022/11/13 03:09:47;;;;;;;;;53.25;43.75;;;;;9.28;72.07;102000.69;6278801;22;45213;-79
2022/11/13 03:12:13;;;;;;;;;52.25;42.50;;;;;9.47;71.94;102025.59;6279078;22;45196;-79
2022/11/13 03:14:38;;;;;;;;;51.75;40.75;;;;;9.19;71.89;101994.31;6276526;22;45449;-79
2022/11/13 03:17:04;;;;;;;;;47.00;40.25;;;;;9.32;72.32;102003.38;6250702;22;47873;-79
2022/11/13 03:19:51;;;;;;;;;56.25;43.50;;;;;9.43;71.95;102034.28;6250722;22;45373;-79
2022/11/13 03:22:42;;;;;;;;;51.00;41.00;;;;;9.16;72.00;101978.50;6250210;22;45456;-79
2022/11/13 03:25:45;;;;;;;;;61.00;49.75;;;;;9.40;72.31;102013.19;6250295;22;45383;-79
2022/11/13 03:31:31;;;;;;;;;51.75;42.00;;;;;9.41;72.27;102022.84;6269875;22;45220;-79
2022/11/13 03:34:38;;;;;;;;;46.25;40.00;;;;;9.22;72.12;101978.63;6249630;22;45399;-79
2022/11/13 03:40:54;;;;;;;;;53.25;44.00;;;;;9.47;72.19;102011.59;6237519;22;46790;-80
2022/11/13 03:43:54;;;;;;;;;;;;;;;;;;;;;
2022/11/13 03:49:25;;;;;;;;;49.25;41.75;;;;;9.52;72.00;101988.03;6277061;22;45425;-79
2022/11/13 03:52:02;;;;;;;;;53.75;45.25;;;;;9.54;72.08;101984.53;6250569;22;47025;-80
2022/11/13 03:54:41;;;;;;;;;54.00;43.00;;;;;9.48;72.17;101971.28;6250546;22;45416;-79
2022/11/13 03:57:17;;;;;;;;;51.75;43.25;;;;;9.60;72.10;101991.69;6278344;22;45427;-79
2022/11/13 03:59:57;;;;;;;;;52.00;44.00;;;;;9.63;71.93;101991.75;6250456;22;45448;-80
2022/11/13 04:02:30;;;;;;;;;48.75;39.50;;;;;9.31;72.34;101934.16;6275829;22;47361;-79
2022/11/13 04:05:11;;;;;;;;;50.25;41.00;;;;;9.75;72.07;101999.88;6250479;22;45192;-79
2022/11/13 04:07:49;;;;;;;;;51.00;41.00;;;;;9.42;71.98;101943.13;6249325;22;45315;-79
2022/11/13 04:10:23;;;;;;;;;78.75;57.50;;;;;9.78;71.82;101984.16;6247487;22;45153;-79
2022/11/13 04:13:24;;;;;;;;;48.25;37.75;;;;;9.80;71.74;101992.09;6249214;22;47748;-79
2022/11/13 04:15:58;;;;;;;;;44.25;35.75;;;;;9.83;71.99;101994.78;6249338;22;45323;-79
2022/11/13 04:18:41;;;;;;;;;61.00;48.75;;;;;9.76;72.07;101972.75;6249923;22;45383;-79
2022/11/13 04:21:16;;;;;;;;;44.75;37.50;;;;;9.84;71.94;101975.53;6249705;22;45489;-80
2022/11/13 04:23:50;;;;;;;;;25.50;17.25;;;;;9.87;71.89;101978.22;6215637;22;46745;-79
2022/11/13 04:26:21;;;;;;;;;45.25;37.25;;;;;9.45;71.92;101906.41;6219356;22;45259;-79
2022/11/13 04:28:49;;;;;;;;;48.00;40.25;;;;;9.93;72.00;101980.94;6247359;22;45336;-79
2022/11/13 04:31:14;;;;;;;;;50.00;39.25;;;;;9.69;71.98;101937.53;6219583;22;45686;-79
2022/11/13 04:33:43;;;;;;;;;46.50;37.75;;;;;9.87;72.11;101965.94;6218861;22;46496;-80
2022/11/13 04:36:17;;;;;;;;;50.50;41.00;;;;;9.91;71.86;101967.75;6219598;22;45582;-79
2022/11/13 04:39:10;;;;;;;;;48.75;40.00;;;;;10.04;72.13;101973.25;6218566;22;45426;-79
2022/11/13 04:44:27;;;;;;;;;38.50;34.25;;;;;9.92;72.43;101934.47;6246664;22;45162;-79
2022/11/13 04:47:18;;;;;;;;;44.00;38.75;;;;;9.91;72.27;101936.19;6219440;22;45243;-80
2022/11/13 04:49:50;;;;;;;;;47.50;39.75;;;;;9.84;72.21;101896.63;6214965;22;45497;-79
2022/11/13 04:52:54;;;;;;;;;46.50;38.50;;;;;10.18;72.26;101952.44;6219377;22;45211;-79
2022/11/13 04:55:40;;;;;;;;;41.00;37.00;;;;;10.22;72.54;101970.06;6247280;22;45566;-79
2022/11/13 04:58:33;;;;;;;;;34.25;33.25;;;;;10.26;72.47;101964.00;6218596;22;45770;-79
2022/11/13 05:01:17;;;;;;;;;41.00;35.50;;;;;10.29;72.69;101970.25;6218342;22;45146;-79
2022/11/13 05:03:58;;;;;;;;;39.25;36.75;;;;;10.34;72.78;101959.78;6218826;22;45464;-79
2022/11/13 05:06:46;;;;;;;;;37.25;35.75;;;;;10.37;72.71;101963.38;6220555;22;46842;-79
2022/11/13 05:09:43;;;;;;;;;31.25;29.00;;;;;10.37;72.63;101955.47;6219207;22;45403;-79
2022/11/13 05:12:48;;;;;;;;;33.75;31.00;;;;;10.19;73.25;101915.63;6220418;22;45219;-80
2022/11/13 05:15:26;;;;;;;;;34.50;30.75;;;;;9.99;73.28;101891.59;6219167;22;45441;-79
2022/11/13 05:17:54;;;;;;;;;25.75;25.00;;;;;10.41;73.51;101961.66;6219178;22;47924;-79
2022/11/13 05:20:23;;;;;;;;;23.25;20.25;;;;;9.99;73.52;101873.19;6246872;22;45322;-79
2022/11/13 05:22:48;;;;;;;;;32.00;26.00;;;;;10.18;73.58;101905.94;6219520;22;45185;-79
2022/11/13 05:25:14;;;;;;;;;34.00;30.50;;;;;10.34;73.82;101928.19;6218805;22;45202;-79
2022/11/13 05:28:04;;;;;;;;;34.00;31.25;;;;;10.47;73.67;101945.94;6219206;22;46524;-80
2022/11/13 05:30:35;;;;;;;;;38.25;33.00;;;;;10.49;73.67;101938.09;6219137;22;45367;-80
2022/11/13 05:33:06;;;;;;;;;35.25;32.50;;;;;10.52;73.71;101935.50;6246974;22;45261;-81
2022/11/13 05:35:39;;;;;;;;;38.75;36.00;;;;;10.60;73.74;101944.41;6219178;22;45422;-81
2022/11/13 05:38:21;;;;;;;;;34.25;32.25;;;;;10.63;73.55;101951.47;6219164;22;46444;-81
2022/11/13 05:40:46;;;;;;;;;44.75;36.25;;;;;10.38;73.52;101899.31;6246779;22;45186;-78
2022/11/13 05:43:12;;;;;;;;;38.50;34.25;;;;;10.40;73.39;101898.44;6219301;22;45225;-78
2022/11/13 05:45:37;;;;;;;;;38.00;33.25;;;;;10.25;73.42;101855.19;6219350;22;45777;-78
2022/11/13 05:48:02;;;;;;;;;32.50;31.00;;;;;10.54;73.32;101913.59;6219333;22;47244;-78
2022/11/13 05:50:37;;;;;;;;;24.00;24.00;;;;;10.56;73.54;101905.75;6219371;22;45400;-79
2022/11/13 05:53:05;;;;;;;;;31.25;28.75;;;;;10.41;73.11;101894.97;6219178;22;45127;-80
2022/11/13 05:55:40;;;;;;;;;37.50;34.25;;;;;10.64;73.27;101916.34;6246707;22;45369;-80
2022/11/13 05:58:10;;;;;;;;;31.25;24.00;;;;;10.42;73.43;101880.94;6219571;22;47121;-80
2022/11/13 06:00:42;;;;;;;;;39.25;35.50;;;;;10.52;73.46;101912.69;6220385;22;45774;-81
2022/11/13 06:03:16;;;;;;;;;42.00;34.75;;;;;10.29;73.40;101859.69;6220616;22;45312;-80
2022/11/13 06:05:42;;;;;;;;;38.25;31.50;;;;;10.37;73.27;101872.94;6220296;22;45459;-79
2022/11/13 06:08:07;;;;;;;;;29.00;27.75;;;;;10.58;73.43;101914.53;6220020;22;47475;-80
2022/11/13 06:10:36;;;;;;;;;28.00;26.75;;;;;10.45;73.22;101883.59;6248355;22;45312;-81
2022/11/13 06:13:03;;;;;;;;;31.00;28.75;;;;;10.56;73.13;101898.72;6248020;22;45305;-80
2022/11/13 06:15:32;;;;;;;;;57.75;46.75;;;;;10.22;73.07;101827.97;6219147;22;45650;-78
2022/11/13 06:18:45;;;;;;;;;104.00;92.33;;;;;10.56;73.58;101888.19;6219697;22;46247;-79
2022/11/13 07:20:04;;;;;;;;;31.50;28.75;;;;;9.67;73.06;101888.41;6247133;22;45469;-82
2022/11/13 07:22:38;;;;;;;;;29.75;26.75;;;;;9.45;73.06;101843.31;6249632;22;46985;-82
2022/11/13 07:25:07;;;;;;;;;25.75;24.25;;;;;9.32;72.89;101828.19;6250898;22;45410;-81
2022/11/13 07:27:35;;;;;;;;;30.50;27.75;;;;;9.23;73.05;101793.84;6278473;22;45256;-82
2022/11/13 09:53:36;;;;;;;;;24.00;20.75;;;;;12.87;70.12;101751.31;6263905;22;1383096;-80
2022/11/13 12:50:40;;;;;;;;;29.25;28.00;;;;;28.27;29.01;101508.75;6276501;22;45726;-85
2022/11/13 13:47:50;;;;;;;;;28.00;25.75;;;;;32.49;26.29;101458.09;6272356;22;45330;-92
2022/11/13 18:19:18;;;;;;;;;35.25;30.50;;;;;12.37;63.62;101374.38;6101663;23;45500;-81
2022/11/13 18:40:17;;;;;;;;;44.00;33.25;;;;;11.90;65.04;101362.97;5983656;23;45485;-81
2022/11/13 18:43:49;;;;;;;;;37.25;34.00;;;;;11.93;65.35;101374.41;6031638;23;46908;-80
2022/11/13 18:46:54;;;;;;;;;41.25;33.50;;;;;11.86;65.43;101368.22;6118838;22;45587;-79
2022/11/13 18:50:22;;;;;;;;;48.00;38.50;;;;;11.40;65.47;101303.09;6214193;22;45617;-79
2022/11/13 18:52:50;;;;;;;;;49.75;39.75;;;;;11.58;65.84;101330.38;6216055;22;45483;-78
2022/11/13 18:55:39;;;;;;;;;46.25;38.75;;;;;11.70;66.03;101362.03;6216756;22;46411;-80
2022/11/13 18:58:06;;;;;;;;;42.75;37.00;;;;;11.54;66.32;101323.31;6201941;22;45292;-79
2022/11/13 23:26:05;;;;;;;;;;;;;;;;;;;;;
2022/11/13 23:28:59;;;;;;;;;;;;;;;;;;;;;
2022/11/13 23:32:36;;;;;;;;;;;;;;;;;;;;;
2022/11/13 23:36:11;;;;;;;;;;;;;;;;;;;;;
2022/11/13 23:41:33;;;;;;;;;30.75;30.25;;;;;11.27;65.55;101128.22;6138946;23;46084;-88
2022/11/13 23:44:21;;;;;;;;;;;;;;;;;;;;;
2022/11/13 23:50:44;;;;;;;;;;;;;;;;;;;;;
